sensor_id;sensor_type;location;lat;lon;timestamp;P1;durP1;ratioP1;P2;durP2;ratioP2
61907;SDS011;47864;52.526;19.672;2022-11-20T00:01:08;56.10;;;31.40;;
61907;SDS011;47864;52.526;19.672;2022-11-20T00:03:12;53.33;;;31.45;;
61907;SDS011;47864;52.526;19.672;2022-11-20T00:05:13;52.75;;;31.92;;
61907;SDS011;47864;52.526;19.672;2022-11-20T00:07:15;54.35;;;31.83;;
61907;SDS011;47864;52.526;19.672;2022-11-20T00:09:17;58.33;;;34.20;;
61907;SDS011;47864;52.526;19.672;2022-11-20T00:11:20;65.88;;;34.70;;
61907;SDS011;47864;52.526;19.672;2022-11-20T00:13:23;70.57;;;38.50;;
61907;SDS011;47864;52.526;19.672;2022-11-20T00:15:25;63.17;;;36.75;;
61907;SDS011;47864;52.526;19.672;2022-11-20T00:17:27;63.75;;;36.33;;
61907;SDS011;47864;52.526;19.672;2022-11-20T00:19:28;65.78;;;37.17;;
61907;SDS011;47864;52.526;19.672;2022-11-20T00:21:30;63.05;;;35.50;;
61907;SDS011;47864;52.526;19.672;2022-11-20T00:23:33;70.13;;;36.92;;
61907;SDS011;47864;52.526;19.672;2022-11-20T00:25:35;66.93;;;39.67;;
61907;SDS011;47864;52.526;19.672;2022-11-20T00:27:37;81.78;;;44.30;;
61907;SDS011;47864;52.526;19.672;2022-11-20T00:29:39;64.65;;;36.78;;
61907;SDS011;47864;52.526;19.672;2022-11-20T00:31:40;72.80;;;37.45;;
61907;SDS011;47864;52.526;19.672;2022-11-20T00:33:43;71.32;;;37.30;;
61907;SDS011;47864;52.526;19.672;2022-11-20T00:35:45;68.68;;;36.50;;
61907;SDS011;47864;52.526;19.672;2022-11-20T00:37:46;65.93;;;35.00;;
61907;SDS011;47864;52.526;19.672;2022-11-20T00:39:48;68.75;;;36.17;;
61907;SDS011;47864;52.526;19.672;2022-11-20T00:41:52;69.50;;;36.53;;
61907;SDS011;47864;52.526;19.672;2022-11-20T00:43:54;69.55;;;36.75;;
61907;SDS011;47864;52.526;19.672;2022-11-20T00:46:04;64.47;;;35.20;;
61907;SDS011;47864;52.526;19.672;2022-11-20T00:48:07;63.30;;;34.50;;
61907;SDS011;47864;52.526;19.672;2022-11-20T00:50:09;63.63;;;34.78;;
61907;SDS011;47864;52.526;19.672;2022-11-20T00:52:12;60.95;;;35.55;;
61907;SDS011;47864;52.526;19.672;2022-11-20T00:54:14;62.83;;;34.90;;
61907;SDS011;47864;52.526;19.672;2022-11-20T00:56:17;66.22;;;35.65;;
61907;SDS011;47864;52.526;19.672;2022-11-20T00:58:20;62.53;;;34.78;;
61907;SDS011;47864;52.526;19.672;2022-11-20T01:00:22;65.20;;;36.90;;
61907;SDS011;47864;52.526;19.672;2022-11-20T01:02:25;68.13;;;37.55;;
61907;SDS011;47864;52.526;19.672;2022-11-20T01:04:28;61.33;;;33.30;;
61907;SDS011;47864;52.526;19.672;2022-11-20T01:06:32;57.17;;;33.85;;
61907;SDS011;47864;52.526;19.672;2022-11-20T01:08:36;62.13;;;35.00;;
61907;SDS011;47864;52.526;19.672;2022-11-20T01:10:38;62.97;;;35.00;;
61907;SDS011;47864;52.526;19.672;2022-11-20T01:12:40;66.47;;;35.63;;
61907;SDS011;47864;52.526;19.672;2022-11-20T01:14:42;60.47;;;34.35;;
61907;SDS011;47864;52.526;19.672;2022-11-20T01:16:45;63.67;;;35.15;;
61907;SDS011;47864;52.526;19.672;2022-11-20T01:18:51;67.55;;;35.92;;
61907;SDS011;47864;52.526;19.672;2022-11-20T01:20:55;65.45;;;36.35;;
61907;SDS011;47864;52.526;19.672;2022-11-20T01:22:57;63.47;;;35.30;;
61907;SDS011;47864;52.526;19.672;2022-11-20T01:24:59;59.35;;;34.25;;
61907;SDS011;47864;52.526;19.672;2022-11-20T01:27:00;64.15;;;36.50;;
61907;SDS011;47864;52.526;19.672;2022-11-20T01:29:03;63.00;;;35.70;;
61907;SDS011;47864;52.526;19.672;2022-11-20T01:33:16;61.65;;;35.55;;
61907;SDS011;47864;52.526;19.672;2022-11-20T01:35:18;67.60;;;35.53;;
61907;SDS011;47864;52.526;19.672;2022-11-20T01:37:21;63.67;;;35.13;;
61907;SDS011;47864;52.526;19.672;2022-11-20T01:39:24;67.50;;;36.63;;
61907;SDS011;47864;52.526;19.672;2022-11-20T01:41:28;62.85;;;35.50;;
61907;SDS011;47864;52.526;19.672;2022-11-20T01:43:31;61.55;;;35.42;;
61907;SDS011;47864;52.526;19.672;2022-11-20T01:48:12;64.63;;;35.83;;
61907;SDS011;47864;52.526;19.672;2022-11-20T01:50:15;59.97;;;35.63;;
61907;SDS011;47864;52.526;19.672;2022-11-20T01:52:24;61.33;;;36.65;;
61907;SDS011;47864;52.526;19.672;2022-11-20T01:54:34;64.80;;;36.13;;
61907;SDS011;47864;52.526;19.672;2022-11-20T01:56:40;68.30;;;36.42;;
61907;SDS011;47864;52.526;19.672;2022-11-20T01:58:47;61.97;;;34.88;;
61907;SDS011;47864;52.526;19.672;2022-11-20T02:00:53;66.15;;;37.15;;
61907;SDS011;47864;52.526;19.672;2022-11-20T02:02:57;67.43;;;35.97;;
61907;SDS011;47864;52.526;19.672;2022-11-20T02:05:04;66.97;;;35.38;;
61907;SDS011;47864;52.526;19.672;2022-11-20T02:07:29;60.92;;;34.90;;
61907;SDS011;47864;52.526;19.672;2022-11-20T02:09:31;68.80;;;36.70;;
61907;SDS011;47864;52.526;19.672;2022-11-20T02:11:33;61.63;;;34.97;;
61907;SDS011;47864;52.526;19.672;2022-11-20T02:13:35;61.47;;;35.42;;
61907;SDS011;47864;52.526;19.672;2022-11-20T02:15:37;58.08;;;33.47;;
61907;SDS011;47864;52.526;19.672;2022-11-20T02:17:39;60.03;;;33.17;;
61907;SDS011;47864;52.526;19.672;2022-11-20T02:19:41;60.60;;;33.90;;
61907;SDS011;47864;52.526;19.672;2022-11-20T02:21:45;62.10;;;33.25;;
61907;SDS011;47864;52.526;19.672;2022-11-20T02:24:01;56.85;;;33.30;;
61907;SDS011;47864;52.526;19.672;2022-11-20T02:26:15;57.55;;;33.25;;
61907;SDS011;47864;52.526;19.672;2022-11-20T02:28:18;60.42;;;33.15;;
61907;SDS011;47864;52.526;19.672;2022-11-20T02:30:21;54.08;;;31.77;;
61907;SDS011;47864;52.526;19.672;2022-11-20T02:32:27;58.35;;;32.83;;
61907;SDS011;47864;52.526;19.672;2022-11-20T02:34:30;54.95;;;31.63;;
61907;SDS011;47864;52.526;19.672;2022-11-20T02:36:33;56.92;;;32.83;;
61907;SDS011;47864;52.526;19.672;2022-11-20T02:38:37;57.30;;;32.28;;
61907;SDS011;47864;52.526;19.672;2022-11-20T02:40:39;55.83;;;32.75;;
61907;SDS011;47864;52.526;19.672;2022-11-20T02:42:41;54.25;;;33.03;;
61907;SDS011;47864;52.526;19.672;2022-11-20T02:44:43;59.88;;;32.45;;
61907;SDS011;47864;52.526;19.672;2022-11-20T02:46:45;57.30;;;33.20;;
61907;SDS011;47864;52.526;19.672;2022-11-20T02:48:47;56.30;;;33.40;;
61907;SDS011;47864;52.526;19.672;2022-11-20T02:50:49;59.92;;;33.78;;
61907;SDS011;47864;52.526;19.672;2022-11-20T02:52:50;55.03;;;32.55;;
61907;SDS011;47864;52.526;19.672;2022-11-20T02:54:52;57.72;;;33.22;;
61907;SDS011;47864;52.526;19.672;2022-11-20T02:56:54;53.85;;;31.98;;
61907;SDS011;47864;52.526;19.672;2022-11-20T02:58:56;52.83;;;31.40;;
61907;SDS011;47864;52.526;19.672;2022-11-20T03:00:58;58.28;;;32.83;;
61907;SDS011;47864;52.526;19.672;2022-11-20T03:03:00;56.90;;;33.72;;
61907;SDS011;47864;52.526;19.672;2022-11-20T03:05:06;55.30;;;31.88;;
61907;SDS011;47864;52.526;19.672;2022-11-20T03:07:08;56.70;;;33.42;;
61907;SDS011;47864;52.526;19.672;2022-11-20T03:09:11;55.85;;;32.70;;
61907;SDS011;47864;52.526;19.672;2022-11-20T03:11:13;53.25;;;32.63;;
61907;SDS011;47864;52.526;19.672;2022-11-20T03:13:14;55.80;;;32.92;;
61907;SDS011;47864;52.526;19.672;2022-11-20T03:15:16;57.30;;;32.28;;
61907;SDS011;47864;52.526;19.672;2022-11-20T03:17:18;53.53;;;31.63;;
61907;SDS011;47864;52.526;19.672;2022-11-20T03:19:20;55.90;;;31.60;;
61907;SDS011;47864;52.526;19.672;2022-11-20T03:21:22;55.72;;;31.88;;
61907;SDS011;47864;52.526;19.672;2022-11-20T03:23:24;52.45;;;31.10;;
61907;SDS011;47864;52.526;19.672;2022-11-20T03:25:26;54.92;;;32.00;;
61907;SDS011;47864;52.526;19.672;2022-11-20T03:27:31;51.95;;;31.45;;
61907;SDS011;47864;52.526;19.672;2022-11-20T03:29:37;51.50;;;29.98;;
61907;SDS011;47864;52.526;19.672;2022-11-20T03:31:39;50.38;;;29.05;;
61907;SDS011;47864;52.526;19.672;2022-11-20T03:33:42;51.90;;;30.38;;
61907;SDS011;47864;52.526;19.672;2022-11-20T03:35:44;51.60;;;32.00;;
61907;SDS011;47864;52.526;19.672;2022-11-20T03:37:46;52.53;;;29.63;;
61907;SDS011;47864;52.526;19.672;2022-11-20T03:39:48;52.58;;;30.58;;
61907;SDS011;47864;52.526;19.672;2022-11-20T03:41:49;52.10;;;30.55;;
61907;SDS011;47864;52.526;19.672;2022-11-20T03:43:52;49.03;;;29.95;;
61907;SDS011;47864;52.526;19.672;2022-11-20T03:45:56;52.90;;;30.65;;
61907;SDS011;47864;52.526;19.672;2022-11-20T03:47:57;55.70;;;31.92;;
61907;SDS011;47864;52.526;19.672;2022-11-20T03:49:59;47.80;;;29.67;;
61907;SDS011;47864;52.526;19.672;2022-11-20T03:52:01;55.08;;;32.70;;
61907;SDS011;47864;52.526;19.672;2022-11-20T03:54:04;55.40;;;31.25;;
61907;SDS011;47864;52.526;19.672;2022-11-20T03:56:08;54.70;;;32.08;;
61907;SDS011;47864;52.526;19.672;2022-11-20T03:58:11;51.38;;;29.70;;
61907;SDS011;47864;52.526;19.672;2022-11-20T04:00:13;51.67;;;30.35;;
61907;SDS011;47864;52.526;19.672;2022-11-20T04:02:15;49.80;;;30.75;;
61907;SDS011;47864;52.526;19.672;2022-11-20T04:04:17;51.70;;;30.42;;
61907;SDS011;47864;52.526;19.672;2022-11-20T04:06:35;50.88;;;30.95;;
61907;SDS011;47864;52.526;19.672;2022-11-20T04:08:38;49.92;;;30.13;;
61907;SDS011;47864;52.526;19.672;2022-11-20T04:10:41;56.40;;;32.42;;
61907;SDS011;47864;52.526;19.672;2022-11-20T04:12:42;55.13;;;32.20;;
61907;SDS011;47864;52.526;19.672;2022-11-20T04:14:44;55.15;;;32.80;;
61907;SDS011;47864;52.526;19.672;2022-11-20T04:16:46;60.70;;;32.90;;
61907;SDS011;47864;52.526;19.672;2022-11-20T04:18:51;58.90;;;32.55;;
61907;SDS011;47864;52.526;19.672;2022-11-20T04:20:57;55.22;;;32.67;;
61907;SDS011;47864;52.526;19.672;2022-11-20T04:22:59;56.20;;;32.38;;
61907;SDS011;47864;52.526;19.672;2022-11-20T04:25:01;57.13;;;34.80;;
61907;SDS011;47864;52.526;19.672;2022-11-20T04:27:03;60.83;;;34.08;;
61907;SDS011;47864;52.526;19.672;2022-11-20T04:29:05;61.78;;;35.85;;
61907;SDS011;47864;52.526;19.672;2022-11-20T04:31:08;60.78;;;35.08;;
61907;SDS011;47864;52.526;19.672;2022-11-20T04:33:14;70.75;;;36.22;;
61907;SDS011;47864;52.526;19.672;2022-11-20T04:35:16;64.80;;;36.10;;
61907;SDS011;47864;52.526;19.672;2022-11-20T04:37:18;66.10;;;37.25;;
61907;SDS011;47864;52.526;19.672;2022-11-20T04:39:20;70.28;;;37.38;;
61907;SDS011;47864;52.526;19.672;2022-11-20T04:41:23;66.22;;;37.58;;
61907;SDS011;47864;52.526;19.672;2022-11-20T04:43:27;68.50;;;38.55;;
61907;SDS011;47864;52.526;19.672;2022-11-20T04:45:29;67.72;;;38.63;;
61907;SDS011;47864;52.526;19.672;2022-11-20T04:47:31;69.25;;;38.13;;
61907;SDS011;47864;52.526;19.672;2022-11-20T04:49:33;65.63;;;38.50;;
61907;SDS011;47864;52.526;19.672;2022-11-20T04:51:44;65.60;;;37.75;;
61907;SDS011;47864;52.526;19.672;2022-11-20T04:53:55;65.65;;;37.10;;
61907;SDS011;47864;52.526;19.672;2022-11-20T04:56:03;63.83;;;37.20;;
61907;SDS011;47864;52.526;19.672;2022-11-20T04:58:10;61.53;;;35.50;;
61907;SDS011;47864;52.526;19.672;2022-11-20T05:00:13;64.30;;;36.63;;
61907;SDS011;47864;52.526;19.672;2022-11-20T05:02:15;66.85;;;36.63;;
61907;SDS011;47864;52.526;19.672;2022-11-20T05:04:17;66.32;;;38.50;;
61907;SDS011;47864;52.526;19.672;2022-11-20T05:06:24;71.25;;;39.50;;
61907;SDS011;47864;52.526;19.672;2022-11-20T05:08:26;71.00;;;40.08;;
61907;SDS011;47864;52.526;19.672;2022-11-20T05:10:27;67.03;;;38.45;;
61907;SDS011;47864;52.526;19.672;2022-11-20T05:12:29;70.00;;;38.85;;
61907;SDS011;47864;52.526;19.672;2022-11-20T05:14:32;63.47;;;37.10;;
61907;SDS011;47864;52.526;19.672;2022-11-20T05:16:34;67.88;;;37.40;;
61907;SDS011;47864;52.526;19.672;2022-11-20T05:18:37;61.50;;;36.50;;
61907;SDS011;47864;52.526;19.672;2022-11-20T05:20:39;62.20;;;36.17;;
61907;SDS011;47864;52.526;19.672;2022-11-20T05:22:41;67.82;;;35.28;;
61907;SDS011;47864;52.526;19.672;2022-11-20T05:24:43;63.10;;;35.65;;
61907;SDS011;47864;52.526;19.672;2022-11-20T05:26:45;64.65;;;36.33;;
61907;SDS011;47864;52.526;19.672;2022-11-20T05:28:47;60.75;;;35.10;;
61907;SDS011;47864;52.526;19.672;2022-11-20T05:30:50;57.28;;;33.42;;
61907;SDS011;47864;52.526;19.672;2022-11-20T05:32:52;60.65;;;34.53;;
61907;SDS011;47864;52.526;19.672;2022-11-20T05:34:54;58.42;;;34.20;;
61907;SDS011;47864;52.526;19.672;2022-11-20T05:36:56;60.88;;;34.65;;
61907;SDS011;47864;52.526;19.672;2022-11-20T05:38:57;57.83;;;33.45;;
61907;SDS011;47864;52.526;19.672;2022-11-20T05:41:03;59.28;;;34.30;;
61907;SDS011;47864;52.526;19.672;2022-11-20T05:43:09;56.42;;;33.60;;
61907;SDS011;47864;52.526;19.672;2022-11-20T05:45:10;59.47;;;34.65;;
61907;SDS011;47864;52.526;19.672;2022-11-20T05:47:12;61.17;;;34.55;;
61907;SDS011;47864;52.526;19.672;2022-11-20T05:49:14;58.00;;;32.70;;
61907;SDS011;47864;52.526;19.672;2022-11-20T05:51:16;59.90;;;33.75;;
61907;SDS011;47864;52.526;19.672;2022-11-20T05:53:19;59.50;;;34.15;;
61907;SDS011;47864;52.526;19.672;2022-11-20T05:55:21;57.20;;;32.42;;
61907;SDS011;47864;52.526;19.672;2022-11-20T05:57:23;59.90;;;33.92;;
61907;SDS011;47864;52.526;19.672;2022-11-20T05:59:25;55.88;;;33.20;;
61907;SDS011;47864;52.526;19.672;2022-11-20T06:01:27;58.78;;;32.80;;
61907;SDS011;47864;52.526;19.672;2022-11-20T06:03:28;58.17;;;32.95;;
61907;SDS011;47864;52.526;19.672;2022-11-20T06:05:30;54.80;;;31.40;;
61907;SDS011;47864;52.526;19.672;2022-11-20T06:07:32;60.17;;;34.47;;
61907;SDS011;47864;52.526;19.672;2022-11-20T06:09:35;65.32;;;35.72;;
61907;SDS011;47864;52.526;19.672;2022-11-20T06:11:36;61.53;;;33.53;;
61907;SDS011;47864;52.526;19.672;2022-11-20T06:13:38;60.03;;;32.22;;
61907;SDS011;47864;52.526;19.672;2022-11-20T06:15:47;58.60;;;33.13;;
61907;SDS011;47864;52.526;19.672;2022-11-20T06:17:53;56.92;;;33.97;;
61907;SDS011;47864;52.526;19.672;2022-11-20T06:19:56;58.40;;;33.30;;
61907;SDS011;47864;52.526;19.672;2022-11-20T06:21:57;56.10;;;32.45;;
61907;SDS011;47864;52.526;19.672;2022-11-20T06:23:59;59.30;;;34.75;;
61907;SDS011;47864;52.526;19.672;2022-11-20T06:26:05;58.22;;;33.65;;
61907;SDS011;47864;52.526;19.672;2022-11-20T06:28:17;64.55;;;36.42;;
61907;SDS011;47864;52.526;19.672;2022-11-20T06:30:19;63.63;;;35.72;;
61907;SDS011;47864;52.526;19.672;2022-11-20T06:32:21;59.60;;;34.13;;
61907;SDS011;47864;52.526;19.672;2022-11-20T06:34:22;58.80;;;34.80;;
61907;SDS011;47864;52.526;19.672;2022-11-20T06:36:24;64.38;;;36.20;;
61907;SDS011;47864;52.526;19.672;2022-11-20T06:38:26;71.40;;;40.05;;
61907;SDS011;47864;52.526;19.672;2022-11-20T06:40:29;62.13;;;34.83;;
61907;SDS011;47864;52.526;19.672;2022-11-20T06:42:30;63.47;;;34.53;;
61907;SDS011;47864;52.526;19.672;2022-11-20T06:44:33;58.88;;;34.60;;
61907;SDS011;47864;52.526;19.672;2022-11-20T06:46:35;61.25;;;35.72;;
61907;SDS011;47864;52.526;19.672;2022-11-20T06:48:37;60.95;;;35.60;;
61907;SDS011;47864;52.526;19.672;2022-11-20T06:50:39;61.88;;;34.78;;
61907;SDS011;47864;52.526;19.672;2022-11-20T06:52:40;60.58;;;33.80;;
61907;SDS011;47864;52.526;19.672;2022-11-20T06:54:44;65.75;;;36.83;;
61907;SDS011;47864;52.526;19.672;2022-11-20T06:56:46;64.25;;;35.38;;
61907;SDS011;47864;52.526;19.672;2022-11-20T06:58:48;62.67;;;35.00;;
61907;SDS011;47864;52.526;19.672;2022-11-20T07:00:50;67.90;;;37.65;;
61907;SDS011;47864;52.526;19.672;2022-11-20T07:02:52;62.35;;;36.60;;
61907;SDS011;47864;52.526;19.672;2022-11-20T07:04:53;61.53;;;36.25;;
61907;SDS011;47864;52.526;19.672;2022-11-20T07:06:55;61.08;;;36.03;;
61907;SDS011;47864;52.526;19.672;2022-11-20T07:08:57;67.85;;;36.97;;
61907;SDS011;47864;52.526;19.672;2022-11-20T07:11:00;66.38;;;37.97;;
61907;SDS011;47864;52.526;19.672;2022-11-20T07:13:03;72.32;;;37.92;;
61907;SDS011;47864;52.526;19.672;2022-11-20T07:15:05;66.75;;;37.35;;
61907;SDS011;47864;52.526;19.672;2022-11-20T07:17:07;62.42;;;35.65;;
61907;SDS011;47864;52.526;19.672;2022-11-20T07:19:09;68.32;;;37.70;;
61907;SDS011;47864;52.526;19.672;2022-11-20T07:21:11;66.35;;;36.50;;
61907;SDS011;47864;52.526;19.672;2022-11-20T07:23:13;64.72;;;36.97;;
61907;SDS011;47864;52.526;19.672;2022-11-20T07:25:15;60.90;;;38.13;;
61907;SDS011;47864;52.526;19.672;2022-11-20T07:27:17;63.85;;;37.78;;
61907;SDS011;47864;52.526;19.672;2022-11-20T07:29:18;62.85;;;36.60;;
61907;SDS011;47864;52.526;19.672;2022-11-20T07:31:21;68.60;;;36.88;;
61907;SDS011;47864;52.526;19.672;2022-11-20T07:33:22;62.00;;;36.63;;
61907;SDS011;47864;52.526;19.672;2022-11-20T07:35:24;67.45;;;36.60;;
61907;SDS011;47864;52.526;19.672;2022-11-20T07:37:26;65.50;;;36.15;;
61907;SDS011;47864;52.526;19.672;2022-11-20T07:39:28;64.82;;;36.85;;
61907;SDS011;47864;52.526;19.672;2022-11-20T07:41:30;60.40;;;35.60;;
61907;SDS011;47864;52.526;19.672;2022-11-20T07:43:31;60.45;;;36.35;;
61907;SDS011;47864;52.526;19.672;2022-11-20T07:45:41;64.75;;;36.15;;
61907;SDS011;47864;52.526;19.672;2022-11-20T07:47:42;63.25;;;35.22;;
61907;SDS011;47864;52.526;19.672;2022-11-20T07:49:44;66.10;;;38.45;;
61907;SDS011;47864;52.526;19.672;2022-11-20T07:51:46;73.88;;;41.30;;
61907;SDS011;47864;52.526;19.672;2022-11-20T07:53:52;79.05;;;43.22;;
61907;SDS011;47864;52.526;19.672;2022-11-20T07:55:54;83.72;;;45.25;;
61907;SDS011;47864;52.526;19.672;2022-11-20T07:57:56;78.18;;;43.20;;
61907;SDS011;47864;52.526;19.672;2022-11-20T07:59:58;96.70;;;50.33;;
61907;SDS011;47864;52.526;19.672;2022-11-20T08:02:00;82.55;;;44.33;;
61907;SDS011;47864;52.526;19.672;2022-11-20T08:04:02;78.80;;;41.65;;
61907;SDS011;47864;52.526;19.672;2022-11-20T08:06:04;72.95;;;40.83;;
61907;SDS011;47864;52.526;19.672;2022-11-20T08:08:06;67.53;;;39.20;;
61907;SDS011;47864;52.526;19.672;2022-11-20T08:10:09;68.43;;;38.33;;
61907;SDS011;47864;52.526;19.672;2022-11-20T08:12:17;63.35;;;35.33;;
61907;SDS011;47864;52.526;19.672;2022-11-20T08:14:20;71.95;;;37.83;;
61907;SDS011;47864;52.526;19.672;2022-11-20T08:16:22;81.35;;;50.17;;
61907;SDS011;47864;52.526;19.672;2022-11-20T08:18:23;72.38;;;40.15;;
61907;SDS011;47864;52.526;19.672;2022-11-20T08:20:33;79.03;;;41.13;;
61907;SDS011;47864;52.526;19.672;2022-11-20T08:22:36;89.63;;;45.80;;
61907;SDS011;47864;52.526;19.672;2022-11-20T08:24:38;73.00;;;38.63;;
61907;SDS011;47864;52.526;19.672;2022-11-20T08:26:40;63.50;;;38.05;;
61907;SDS011;47864;52.526;19.672;2022-11-20T08:28:42;73.82;;;44.40;;
61907;SDS011;47864;52.526;19.672;2022-11-20T08:30:44;78.82;;;47.40;;
61907;SDS011;47864;52.526;19.672;2022-11-20T08:32:45;71.60;;;41.40;;
61907;SDS011;47864;52.526;19.672;2022-11-20T08:34:47;75.18;;;43.10;;
61907;SDS011;47864;52.526;19.672;2022-11-20T08:36:49;72.45;;;41.30;;
61907;SDS011;47864;52.526;19.672;2022-11-20T08:38:51;147.73;;;68.50;;
61907;SDS011;47864;52.526;19.672;2022-11-20T08:40:59;118.60;;;56.13;;
61907;SDS011;47864;52.526;19.672;2022-11-20T08:43:01;140.68;;;55.97;;
61907;SDS011;47864;52.526;19.672;2022-11-20T08:45:03;177.05;;;70.40;;
61907;SDS011;47864;52.526;19.672;2022-11-20T08:47:06;73.18;;;40.15;;
61907;SDS011;47864;52.526;19.672;2022-11-20T08:49:08;78.88;;;43.60;;
61907;SDS011;47864;52.526;19.672;2022-11-20T08:51:11;99.85;;;43.95;;
61907;SDS011;47864;52.526;19.672;2022-11-20T08:53:14;165.40;;;61.60;;
61907;SDS011;47864;52.526;19.672;2022-11-20T08:55:15;128.75;;;49.78;;
61907;SDS011;47864;52.526;19.672;2022-11-20T08:57:17;92.90;;;42.75;;
61907;SDS011;47864;52.526;19.672;2022-11-20T08:59:19;204.60;;;65.80;;
61907;SDS011;47864;52.526;19.672;2022-11-20T09:01:41;82.78;;;38.97;;
61907;SDS011;47864;52.526;19.672;2022-11-20T09:03:42;100.82;;;44.53;;
61907;SDS011;47864;52.526;19.672;2022-11-20T09:05:44;153.43;;;59.58;;
61907;SDS011;47864;52.526;19.672;2022-11-20T09:07:46;142.73;;;54.20;;
61907;SDS011;47864;52.526;19.672;2022-11-20T09:09:48;90.88;;;39.95;;
61907;SDS011;47864;52.526;19.672;2022-11-20T09:12:10;92.85;;;40.88;;
61907;SDS011;47864;52.526;19.672;2022-11-20T09:14:11;74.70;;;36.03;;
61907;SDS011;47864;52.526;19.672;2022-11-20T09:16:13;85.15;;;39.88;;
61907;SDS011;47864;52.526;19.672;2022-11-20T09:18:15;108.22;;;52.47;;
61907;SDS011;47864;52.526;19.672;2022-11-20T09:20:17;107.43;;;44.03;;
61907;SDS011;47864;52.526;19.672;2022-11-20T09:22:18;82.28;;;36.40;;
61907;SDS011;47864;52.526;19.672;2022-11-20T09:24:20;101.82;;;45.58;;
61907;SDS011;47864;52.526;19.672;2022-11-20T09:26:22;96.43;;;41.10;;
61907;SDS011;47864;52.526;19.672;2022-11-20T09:28:24;89.35;;;39.65;;
61907;SDS011;47864;52.526;19.672;2022-11-20T09:30:26;88.55;;;40.42;;
61907;SDS011;47864;52.526;19.672;2022-11-20T09:32:28;84.20;;;38.20;;
61907;SDS011;47864;52.526;19.672;2022-11-20T09:34:31;86.72;;;38.80;;
61907;SDS011;47864;52.526;19.672;2022-11-20T09:36:33;96.47;;;42.67;;
61907;SDS011;47864;52.526;19.672;2022-11-20T09:38:35;83.95;;;38.00;;
61907;SDS011;47864;52.526;19.672;2022-11-20T09:40:38;86.90;;;40.38;;
61907;SDS011;47864;52.526;19.672;2022-11-20T09:47:35;94.53;;;43.78;;
61907;SDS011;47864;52.526;19.672;2022-11-20T09:50:14;80.93;;;39.95;;
61907;SDS011;47864;52.526;19.672;2022-11-20T09:54:51;65.55;;;33.53;;
61907;SDS011;47864;52.526;19.672;2022-11-20T09:56:59;94.43;;;42.42;;
61907;SDS011;47864;52.526;19.672;2022-11-20T09:59:05;78.15;;;37.97;;
61907;SDS011;47864;52.526;19.672;2022-11-20T10:01:10;71.82;;;39.90;;
61907;SDS011;47864;52.526;19.672;2022-11-20T10:03:24;113.60;;;42.78;;
61907;SDS011;47864;52.526;19.672;2022-11-20T10:05:46;67.00;;;33.00;;
61907;SDS011;47864;52.526;19.672;2022-11-20T10:10:01;68.60;;;34.42;;
61907;SDS011;47864;52.526;19.672;2022-11-20T10:29:12;73.30;;;34.70;;
61907;SDS011;47864;52.526;19.672;2022-11-20T10:31:39;68.50;;;33.50;;
61907;SDS011;47864;52.526;19.672;2022-11-20T10:33:44;80.78;;;37.22;;
61907;SDS011;47864;52.526;19.672;2022-11-20T10:40:38;118.72;;;48.03;;
61907;SDS011;47864;52.526;19.672;2022-11-20T10:42:47;71.22;;;35.17;;
61907;SDS011;47864;52.526;19.672;2022-11-20T10:47:21;100.57;;;42.85;;
61907;SDS011;47864;52.526;19.672;2022-11-20T10:49:23;73.13;;;33.20;;
61907;SDS011;47864;52.526;19.672;2022-11-20T10:55:57;49.97;;;24.83;;
61907;SDS011;47864;52.526;19.672;2022-11-20T11:00:32;37.47;;;19.73;;
61907;SDS011;47864;52.526;19.672;2022-11-20T11:02:47;45.80;;;24.55;;
61907;SDS011;47864;52.526;19.672;2022-11-20T11:04:53;39.85;;;21.80;;
61907;SDS011;47864;52.526;19.672;2022-11-20T11:06:58;53.47;;;25.63;;
61907;SDS011;47864;52.526;19.672;2022-11-20T11:09:26;47.95;;;21.70;;
61907;SDS011;47864;52.526;19.672;2022-11-20T11:11:43;43.75;;;23.50;;
61907;SDS011;47864;52.526;19.672;2022-11-20T11:13:45;36.63;;;19.83;;
61907;SDS011;47864;52.526;19.672;2022-11-20T11:15:47;34.80;;;18.80;;
61907;SDS011;47864;52.526;19.672;2022-11-20T11:17:49;38.58;;;22.92;;
61907;SDS011;47864;52.526;19.672;2022-11-20T11:19:58;32.80;;;19.38;;
61907;SDS011;47864;52.526;19.672;2022-11-20T11:22:01;31.55;;;17.40;;
61907;SDS011;47864;52.526;19.672;2022-11-20T11:24:20;37.10;;;20.95;;
61907;SDS011;47864;52.526;19.672;2022-11-20T11:26:50;33.67;;;17.17;;
61907;SDS011;47864;52.526;19.672;2022-11-20T11:29:05;29.20;;;15.70;;
61907;SDS011;47864;52.526;19.672;2022-11-20T11:31:07;29.77;;;15.82;;
61907;SDS011;47864;52.526;19.672;2022-11-20T11:33:09;37.08;;;18.70;;
61907;SDS011;47864;52.526;19.672;2022-11-20T11:35:20;34.33;;;18.13;;
61907;SDS011;47864;52.526;19.672;2022-11-20T11:37:29;35.88;;;17.73;;
61907;SDS011;47864;52.526;19.672;2022-11-20T11:39:38;32.80;;;17.58;;
61907;SDS011;47864;52.526;19.672;2022-11-20T11:41:43;35.90;;;18.02;;
61907;SDS011;47864;52.526;19.672;2022-11-20T11:43:55;29.60;;;16.83;;
61907;SDS011;47864;52.526;19.672;2022-11-20T11:46:01;34.35;;;18.10;;
61907;SDS011;47864;52.526;19.672;2022-11-20T11:48:03;33.95;;;16.80;;
61907;SDS011;47864;52.526;19.672;2022-11-20T11:52:18;38.35;;;18.35;;
61907;SDS011;47864;52.526;19.672;2022-11-20T11:54:26;37.50;;;20.65;;
61907;SDS011;47864;52.526;19.672;2022-11-20T11:56:32;36.38;;;19.85;;
61907;SDS011;47864;52.526;19.672;2022-11-20T12:00:49;44.85;;;21.02;;
61907;SDS011;47864;52.526;19.672;2022-11-20T12:05:27;93.78;;;35.70;;
61907;SDS011;47864;52.526;19.672;2022-11-20T12:07:39;244.55;;;80.55;;
61907;SDS011;47864;52.526;19.672;2022-11-20T12:09:49;137.65;;;40.10;;
61907;SDS011;47864;52.526;19.672;2022-11-20T12:12:05;129.05;;;38.50;;
61907;SDS011;47864;52.526;19.672;2022-11-20T12:14:24;48.47;;;21.13;;
61907;SDS011;47864;52.526;19.672;2022-11-20T12:16:36;37.33;;;19.30;;
61907;SDS011;47864;52.526;19.672;2022-11-20T12:18:40;37.85;;;19.10;;
61907;SDS011;47864;52.526;19.672;2022-11-20T12:20:45;93.07;;;35.17;;
61907;SDS011;47864;52.526;19.672;2022-11-20T12:23:07;72.35;;;30.13;;
61907;SDS011;47864;52.526;19.672;2022-11-20T12:25:22;53.28;;;21.88;;
61907;SDS011;47864;52.526;19.672;2022-11-20T12:27:35;70.65;;;27.20;;
61907;SDS011;47864;52.526;19.672;2022-11-20T12:30:09;60.05;;;26.05;;
61907;SDS011;47864;52.526;19.672;2022-11-20T12:34:39;38.10;;;20.00;;
61907;SDS011;47864;52.526;19.672;2022-11-20T12:36:45;53.45;;;21.88;;
61907;SDS011;47864;52.526;19.672;2022-11-20T12:41:33;36.45;;;18.15;;
61907;SDS011;47864;52.526;19.672;2022-11-20T12:43:56;40.47;;;19.13;;
61907;SDS011;47864;52.526;19.672;2022-11-20T12:46:09;32.92;;;18.23;;
61907;SDS011;47864;52.526;19.672;2022-11-20T12:48:34;38.75;;;18.95;;
61907;SDS011;47864;52.526;19.672;2022-11-20T12:53:31;58.70;;;23.40;;
61907;SDS011;47864;52.526;19.672;2022-11-20T12:58:20;59.03;;;24.55;;
61907;SDS011;47864;52.526;19.672;2022-11-20T13:00:38;38.35;;;18.67;;